createdAt,value
2022-11-01T00:01:09.706Z,56.70
2022-11-01T00:03:42.053Z,58.40
2022-11-01T00:06:18.744Z,62.10
2022-11-01T00:08:50.813Z,66.20
2022-11-01T00:11:23.070Z,62.20
2022-11-01T00:13:54.975Z,60.20
2022-11-01T00:16:27.127Z,57.10
2022-11-01T00:18:59.288Z,63.30
2022-11-01T00:21:31.197Z,62.30
2022-11-01T00:24:03.124Z,67.20
2022-11-01T00:26:35.187Z,58.10
2022-11-01T00:29:08.540Z,64.90
2022-11-01T00:31:42.734Z,72.70
2022-11-01T00:34:14.669Z,69.60
2022-11-01T00:36:46.682Z,70.70
2022-11-01T00:39:18.686Z,67.70
2022-11-01T00:41:51.696Z,74.90
2022-11-01T00:44:23.697Z,79.70
2022-11-01T00:46:55.646Z,73.00
2022-11-01T00:49:28.026Z,73.70
2022-11-01T00:51:59.968Z,67.20
2022-11-01T00:54:31.876Z,64.00
2022-11-01T00:57:04.001Z,72.50
2022-11-01T00:59:40.648Z,60.60
2022-11-01T01:02:13.227Z,60.90
2022-11-01T01:04:48.527Z,64.00
2022-11-01T01:07:20.566Z,56.10
2022-11-01T01:09:52.479Z,63.20
2022-11-01T01:12:24.808Z,58.00
2022-11-01T01:14:56.683Z,60.80
2022-11-01T01:17:31.310Z,65.80
2022-11-01T01:20:07.573Z,60.90
2022-11-01T01:22:39.505Z,55.10
2022-11-01T01:25:12.303Z,56.10
2022-11-01T01:27:44.337Z,55.80
2022-11-01T01:30:16.730Z,60.60
2022-11-01T01:32:48.854Z,57.10
2022-11-01T01:35:21.202Z,52.50
2022-11-01T01:37:53.332Z,66.30
2022-11-01T01:40:25.217Z,64.20
2022-11-01T01:42:57.086Z,76.90
2022-11-01T01:45:40.668Z,85.50
2022-11-01T01:48:22.574Z,86.10
2022-11-01T01:50:59.762Z,84.60
2022-11-01T01:53:35.265Z,87.90
2022-11-01T01:56:12.996Z,77.10
2022-11-01T01:58:47.330Z,58.30
2022-11-01T02:01:19.401Z,54.20
2022-11-01T02:03:53.009Z,61.30
2022-11-01T02:06:27.116Z,58.90
2022-11-01T02:09:01.677Z,56.50
2022-11-01T02:11:33.714Z,61.70
2022-11-01T02:14:06.183Z,55.90
2022-11-01T02:16:53.308Z,65.10
2022-11-01T02:19:55.979Z,70.10
2022-11-01T02:22:45.429Z,80.80
2022-11-01T02:25:51.508Z,78.50
2022-11-01T02:28:40.756Z,75.20
2022-11-01T02:31:33.134Z,69.60
2022-11-01T02:36:45.530Z,67.50
2022-11-01T02:39:25.232Z,76.40
2022-11-01T02:42:04.544Z,66.80
2022-11-01T02:44:41.209Z,81.60
2022-11-01T02:47:14.218Z,78.30
2022-11-01T02:49:49.419Z,69.80
2022-11-01T02:52:24.856Z,76.40
2022-11-01T02:55:00.263Z,69.00
2022-11-01T02:57:37.311Z,65.10
2022-11-01T03:00:23.796Z,70.50
2022-11-01T03:03:05.906Z,63.60
2022-11-01T03:05:47.094Z,67.90
2022-11-01T03:08:31.915Z,65.60
2022-11-01T03:11:12.781Z,69.50
2022-11-01T03:13:59.213Z,66.20
2022-11-01T03:16:36.942Z,83.70
2022-11-01T03:19:21.806Z,87.10
2022-11-01T03:22:00.583Z,72.20
2022-11-01T03:24:36.483Z,76.90
2022-11-01T03:27:16.851Z,84.50
2022-11-01T03:29:56.985Z,85.00
2022-11-01T03:32:33.765Z,81.40
2022-11-01T03:35:09.784Z,87.90
2022-11-01T03:37:45.274Z,91.10
2022-11-01T03:40:20.348Z,81.50
2022-11-01T03:42:55.701Z,77.90
2022-11-01T03:45:29.416Z,96.10
2022-11-01T03:48:03.141Z,81.30
2022-11-01T03:50:37.179Z,80.60
2022-11-01T03:53:09.407Z,80.90
2022-11-01T03:55:41.700Z,78.40
2022-11-01T03:58:13.996Z,71.80
2022-11-01T04:00:47.804Z,65.30
2022-11-01T04:03:19.789Z,69.50
2022-11-01T04:05:54.829Z,71.50
2022-11-01T04:08:27.264Z,55.40
2022-11-01T04:10:59.284Z,52.60
2022-11-01T04:13:31.892Z,56.60
2022-11-01T04:16:23.907Z,47.80
2022-11-01T04:19:17.087Z,49.80
2022-11-01T04:21:49.367Z,49.20
2022-11-01T04:24:21.880Z,54.70
2022-11-01T04:26:54.199Z,56.90
2022-11-01T04:29:26.174Z,55.80
2022-11-01T04:31:58.169Z,51.30
2022-11-01T04:34:45.774Z,54.70
2022-11-01T04:37:18.124Z,55.10
2022-11-01T04:39:52.581Z,55.50
2022-11-01T04:42:24.757Z,48.60
2022-11-01T04:44:56.733Z,48.50
2022-11-01T04:47:28.725Z,51.00
2022-11-01T04:50:00.677Z,48.50
2022-11-01T04:52:32.975Z,47.30
2022-11-01T04:55:05.426Z,48.70
2022-11-01T04:57:41.865Z,50.40
2022-11-01T05:00:16.291Z,46.40
2022-11-01T05:02:48.264Z,44.70
2022-11-01T05:05:20.670Z,42.20
2022-11-01T05:07:52.761Z,43.40
2022-11-01T05:10:24.711Z,36.90
2022-11-01T05:12:56.916Z,39.40
2022-11-01T05:15:29.325Z,40.10
2022-11-01T05:18:01.944Z,40.10
2022-11-01T05:20:34.173Z,36.00
2022-11-01T05:23:07.513Z,37.10
2022-11-01T05:25:39.446Z,44.90
2022-11-01T05:28:14.903Z,43.60
2022-11-01T05:30:46.828Z,42.50
2022-11-01T05:33:19.067Z,37.10
2022-11-01T05:35:50.980Z,41.60
2022-11-01T05:38:22.996Z,41.70
2022-11-01T05:40:54.952Z,39.00
2022-11-01T05:43:29.719Z,37.70
2022-11-01T05:46:04.089Z,40.70
2022-11-01T05:48:36.250Z,39.80
2022-11-01T05:51:08.522Z,43.90
2022-11-01T05:53:40.614Z,45.60
2022-11-01T05:56:12.545Z,41.80
2022-11-01T05:58:46.826Z,53.30
2022-11-01T06:01:18.859Z,44.50
2022-11-01T06:03:53.007Z,45.70
2022-11-01T06:06:24.924Z,46.20
2022-11-01T06:08:57.850Z,48.80
2022-11-01T06:11:30.488Z,49.50
2022-11-01T06:14:02.379Z,46.10
2022-11-01T06:16:35.010Z,40.30
2022-11-01T06:19:07.054Z,40.80
2022-11-01T06:21:38.883Z,44.80
2022-11-01T06:24:12.900Z,39.70
2022-11-01T06:26:46.423Z,36.70
2022-11-01T06:29:18.717Z,36.00
2022-11-01T06:31:50.877Z,43.50
2022-11-01T06:34:22.929Z,42.70
2022-11-01T06:36:54.881Z,53.80
2022-11-01T06:39:28.049Z,46.00
2022-11-01T06:42:01.182Z,53.90
2022-11-01T06:44:33.313Z,46.70
2022-11-01T06:47:05.322Z,52.80
2022-11-01T06:49:37.291Z,52.90
2022-11-01T06:52:09.774Z,48.80
2022-11-01T06:54:41.880Z,54.30
2022-11-01T06:57:14.706Z,53.00
2022-11-01T06:59:46.625Z,57.10
2022-11-01T07:02:25.686Z,52.60
2022-11-01T07:05:00.657Z,48.20
2022-11-01T07:07:33.006Z,48.90
2022-11-01T07:10:05.670Z,46.50
2022-11-01T07:12:37.658Z,42.40
2022-11-01T07:15:11.318Z,46.30
2022-11-01T07:17:44.153Z,69.20
2022-11-01T07:20:16.230Z,42.70
2022-11-01T07:22:49.446Z,46.10
2022-11-01T07:25:21.441Z,42.30
2022-11-01T07:27:53.374Z,41.50
2022-11-01T07:30:25.497Z,38.60
2022-11-01T07:33:00.464Z,40.90
2022-11-01T07:35:33.381Z,43.50
2022-11-01T07:38:09.813Z,38.10
2022-11-01T07:40:49.437Z,36.60
2022-11-01T07:43:21.780Z,39.00
2022-11-01T07:45:53.814Z,40.70
2022-11-01T07:48:25.898Z,35.40
2022-11-01T07:51:05.695Z,39.10
2022-11-01T07:53:38.471Z,33.00
2022-11-01T07:56:10.939Z,39.10
2022-11-01T07:58:43.674Z,34.00
2022-11-01T08:01:16.105Z,33.10
2022-11-01T08:03:49.336Z,46.10
2022-11-01T08:08:54.119Z,29.40
2022-11-01T08:11:26.083Z,27.30
2022-11-01T08:14:02.828Z,22.00
2022-11-01T08:16:38.109Z,23.00
2022-11-01T08:19:11.528Z,21.10
2022-11-01T08:21:44.471Z,19.00
2022-11-01T08:24:16.571Z,17.00
2022-11-01T08:26:54.126Z,21.50
2022-11-01T08:29:26.048Z,19.50
2022-11-01T08:31:58.057Z,20.20
2022-11-01T08:34:30.917Z,16.50
2022-11-01T08:37:06.741Z,14.00
2022-11-01T08:39:38.644Z,28.60
2022-11-01T08:42:12.690Z,17.80
2022-11-01T08:44:44.721Z,20.00
2022-11-01T08:47:16.900Z,13.70
2022-11-01T08:49:48.889Z,20.30
2022-11-01T08:52:20.867Z,15.10
2022-11-01T08:54:52.822Z,15.90
2022-11-01T08:57:24.971Z,17.90
2022-11-01T09:00:00.028Z,15.20
2022-11-01T09:02:32.482Z,12.50
2022-11-01T09:05:06.635Z,14.70
2022-11-01T09:07:39.885Z,13.70
2022-11-01T09:10:13.454Z,16.60
2022-11-01T09:12:46.541Z,14.90
2022-11-01T09:15:18.860Z,19.10
2022-11-01T09:17:50.758Z,15.10
2022-11-01T09:20:24.579Z,13.30
2022-11-01T09:22:56.590Z,16.20
2022-11-01T09:25:30.729Z,15.70
2022-11-01T09:28:02.879Z,16.40
2022-11-01T09:30:35.018Z,15.10
2022-11-01T09:33:08.914Z,13.60
2022-11-01T09:35:40.783Z,13.20
2022-11-01T09:38:12.751Z,20.20
2022-11-01T09:40:47.028Z,16.60
2022-11-01T09:43:24.887Z,15.80
2022-11-01T09:45:59.434Z,13.90
2022-11-01T09:48:34.312Z,19.60
2022-11-01T09:51:11.925Z,19.70
2022-11-01T09:53:44.250Z,15.50
2022-11-01T09:56:22.746Z,16.30
2022-11-01T09:59:02.963Z,13.60
2022-11-01T10:01:49.556Z,14.40
2022-11-01T10:04:46.330Z,15.10
2022-11-01T10:07:25.297Z,12.10
2022-11-01T10:10:12.873Z,33.20
2022-11-01T10:13:01.201Z,14.80
2022-11-01T10:15:51.030Z,12.50
2022-11-01T10:18:30.407Z,13.50
2022-11-01T10:21:06.203Z,17.90
2022-11-01T10:23:48.137Z,15.40
2022-11-01T10:26:27.882Z,11.20
2022-11-01T10:29:08.948Z,14.70
2022-11-01T10:31:51.851Z,10.10
2022-11-01T10:34:29.792Z,9.40
2022-11-01T10:37:15.772Z,11.00
2022-11-01T10:39:58.966Z,9.60
2022-11-01T10:42:33.689Z,10.40
2022-11-01T10:45:09.274Z,11.10
2022-11-01T10:47:43.523Z,22.10
2022-11-01T10:50:22.009Z,8.20
2022-11-01T10:52:57.434Z,9.40
2022-11-01T10:55:35.400Z,9.20
2022-11-01T10:58:14.586Z,12.10
2022-11-01T11:00:47.416Z,7.50
2022-11-01T11:03:24.429Z,10.30
2022-11-01T11:06:01.095Z,11.00
2022-11-01T11:08:34.902Z,11.60
2022-11-01T11:11:14.097Z,12.30
2022-11-01T11:13:50.230Z,9.20
2022-11-01T11:16:31.329Z,11.70
2022-11-01T11:19:19.484Z,11.60
2022-11-01T11:21:54.091Z,8.40
2022-11-01T11:24:31.859Z,10.80
2022-11-01T11:27:11.807Z,12.40
2022-11-01T11:29:49.277Z,12.20
2022-11-01T11:32:25.111Z,8.80
2022-11-01T11:34:59.534Z,9.80
2022-11-01T11:37:35.972Z,12.80
2022-11-01T11:40:21.100Z,22.20
2022-11-01T11:42:54.964Z,20.80
2022-11-01T11:45:29.886Z,13.30
2022-11-01T11:48:23.971Z,12.60
2022-11-01T11:51:04.261Z,13.80
2022-11-01T11:53:36.241Z,12.80
2022-11-01T11:56:14.659Z,11.20
2022-11-01T11:58:50.208Z,14.30
2022-11-01T12:01:25.946Z,12.20
2022-11-01T12:04:00.802Z,11.00
2022-11-01T12:06:38.885Z,15.80
2022-11-01T12:09:43.926Z,14.40
2022-11-01T12:12:23.821Z,15.40
2022-11-01T12:14:56.806Z,12.30
2022-11-01T12:17:46.931Z,15.50
2022-11-01T12:20:20.950Z,10.10
2022-11-01T12:22:59.475Z,9.40
2022-11-01T12:25:32.913Z,9.40
2022-11-01T12:32:54.348Z,14.00
2022-11-01T12:38:54.538Z,9.40
2022-11-01T12:42:37.246Z,10.90
2022-11-01T12:45:53.586Z,17.40
2022-11-01T13:04:59.440Z,18.60
2022-11-01T13:12:17.436Z,8.60
2022-11-01T13:24:15.789Z,9.10
2022-11-01T13:36:13.522Z,8.50
2022-11-01T13:43:18.104Z,13.60
2022-11-01T13:52:01.530Z,12.20
2022-11-01T13:54:40.670Z,10.00
2022-11-01T13:57:17.414Z,13.40
2022-11-01T13:59:57.438Z,11.60
2022-11-01T14:02:53.451Z,9.10
2022-11-01T14:05:38.606Z,14.30
2022-11-01T14:08:32.549Z,10.10
2022-11-01T14:11:04.427Z,8.80
2022-11-01T14:13:40.206Z,9.90
2022-11-01T14:16:29.866Z,11.30
2022-11-01T14:19:22.795Z,10.50
2022-11-01T14:21:58.136Z,15.10
2022-11-01T14:24:35.156Z,14.90
2022-11-01T14:27:23.077Z,9.60
2022-11-01T14:29:58.399Z,8.40
2022-11-01T14:32:32.797Z,13.00
2022-11-01T14:35:26.270Z,12.80
2022-11-01T14:41:55.999Z,11.80
2022-11-01T14:49:19.080Z,13.70
2022-11-01T15:05:17.453Z,18.50
2022-11-01T15:13:08.802Z,17.90
2022-11-01T15:20:52.041Z,14.70
2022-11-01T15:28:29.639Z,18.90
2022-11-01T15:53:57.669Z,20.80
2022-11-01T16:01:15.747Z,16.20
2022-11-01T16:04:49.782Z,19.50
2022-11-01T16:07:45.044Z,16.90
2022-11-01T16:14:44.566Z,15.40
2022-11-01T16:26:33.845Z,22.90
2022-11-01T16:34:18.351Z,14.20
2022-11-01T16:36:50.370Z,16.30
2022-11-01T16:39:58.154Z,26.50
2022-11-01T16:42:37.163Z,15.20
2022-11-01T16:49:29.104Z,19.30
2022-11-01T16:52:01.097Z,13.10
2022-11-01T16:54:33.175Z,15.80
2022-11-01T16:58:16.940Z,17.70
2022-11-01T17:10:19.262Z,16.10
2022-11-01T17:12:51.462Z,13.40
2022-11-01T17:16:06.112Z,15.60
2022-11-01T17:23:15.847Z,20.70
2022-11-01T17:30:58.438Z,15.10
2022-11-01T17:39:06.562Z,28.80
2022-11-01T17:41:45.644Z,19.60
2022-11-01T17:44:19.296Z,23.80
2022-11-01T17:46:51.679Z,17.80
2022-11-01T17:50:07.830Z,17.10
2022-11-01T17:52:47.399Z,15.80
2022-11-01T17:55:19.509Z,14.20
2022-11-01T17:57:58.037Z,16.90
2022-11-01T18:00:30.150Z,16.20
2022-11-01T18:43:47.965Z,20.40
2022-11-01T18:49:30.315Z,22.00
2022-11-01T18:53:09.591Z,25.50
2022-11-01T18:55:41.777Z,18.20
2022-11-01T18:59:40.701Z,21.60
2022-11-01T19:02:22.757Z,27.20
2022-11-01T19:05:36.665Z,23.00
2022-11-01T19:13:37.591Z,21.10
2022-11-01T19:24:51.178Z,22.20
2022-11-01T19:27:30.507Z,20.80
2022-11-01T19:35:02.519Z,23.80
2022-11-01T19:37:37.439Z,24.80
2022-11-01T19:41:01.789Z,36.40
2022-11-01T19:43:35.308Z,31.20
2022-11-01T19:51:11.037Z,23.90
2022-11-01T19:54:02.477Z,24.10
2022-11-01T19:56:34.691Z,25.20
2022-11-01T20:00:10.047Z,33.90
2022-11-01T20:02:43.980Z,26.20
2022-11-01T20:19:17.394Z,27.90
2022-11-01T20:22:17.280Z,23.80
2022-11-01T20:25:38.269Z,31.00
2022-11-01T20:37:40.346Z,26.10
2022-11-01T20:41:04.155Z,32.00
2022-11-01T20:43:42.276Z,27.50
2022-11-01T20:46:43.754Z,28.10
2022-11-01T20:49:15.855Z,58.40
2022-11-01T20:51:47.904Z,35.60
2022-11-01T20:54:23.881Z,25.40
2022-11-01T20:56:55.921Z,23.00
2022-11-01T20:59:34.302Z,27.30
2022-11-01T21:02:47.045Z,26.70
2022-11-01T21:05:27.532Z,26.30
2022-11-01T21:08:26.330Z,29.50
2022-11-01T21:12:01.587Z,21.90
2022-11-01T21:14:40.310Z,31.30
2022-11-01T21:21:46.988Z,20.90
2022-11-01T21:26:11.334Z,23.30
2022-11-01T21:29:31.213Z,24.60
2022-11-01T21:32:03.519Z,24.80
2022-11-01T21:34:36.222Z,26.80
2022-11-01T21:37:15.124Z,28.50
2022-11-01T21:39:47.490Z,23.80
2022-11-01T21:42:41.584Z,23.20
2022-11-01T21:49:41.685Z,20.20
2022-11-01T21:53:22.223Z,24.10
2022-11-01T22:00:30.509Z,22.10
2022-11-01T22:03:03.498Z,24.30
2022-11-01T22:05:42.307Z,23.60
2022-11-01T22:08:14.300Z,26.90
2022-11-01T22:10:52.383Z,27.50
2022-11-01T22:13:24.389Z,25.90
2022-11-01T22:16:03.345Z,25.40
2022-11-01T22:18:35.400Z,23.10
2022-11-01T22:21:26.391Z,33.60
2022-11-01T22:28:28.875Z,24.10
2022-11-01T22:31:00.983Z,23.10
2022-11-01T22:38:38.997Z,25.10
2022-11-01T22:45:25.395Z,25.20
2022-11-01T22:48:03.809Z,28.00
2022-11-01T22:55:28.381Z,24.00
2022-11-01T22:58:52.196Z,23.70
2022-11-01T23:01:34.373Z,25.50
2022-11-01T23:09:26.535Z,23.50
2022-11-01T23:12:17.652Z,23.50
2022-11-01T23:15:55.730Z,22.50
2022-11-01T23:18:37.580Z,21.80
2022-11-01T23:22:02.319Z,23.10
2022-11-01T23:24:40.655Z,25.00
2022-11-01T23:32:06.153Z,25.20
2022-11-01T23:34:44.561Z,26.60
2022-11-01T23:41:38.975Z,24.30
2022-11-01T23:49:19.058Z,25.60
2022-11-01T23:51:51.309Z,27.60
2022-11-01T23:54:35.068Z,25.50
2022-11-01T23:57:13.295Z,25.70
2022-11-01T23:59:45.145Z,23.80
